createdAt,value
2019-03-13T00:00:38.551Z,2.73
2019-03-13T00:03:08.032Z,3.13
2019-03-13T00:05:37.244Z,2.70
2019-03-13T00:08:05.661Z,3.00
2019-03-13T00:10:33.943Z,3.57
2019-03-13T00:13:02.654Z,3.20
2019-03-13T00:15:31.265Z,2.60
2019-03-13T00:17:59.900Z,2.70
2019-03-13T00:20:28.452Z,3.30
2019-03-13T00:22:57.158Z,3.03
2019-03-13T00:25:25.441Z,3.33
2019-03-13T00:27:53.689Z,3.07
2019-03-13T00:30:22.302Z,3.10
2019-03-13T00:32:50.842Z,3.07
2019-03-13T00:35:19.416Z,3.10
2019-03-13T00:37:47.957Z,3.00
2019-03-13T00:40:16.602Z,3.57
2019-03-13T00:42:44.826Z,3.03
2019-03-13T00:45:14.801Z,3.17
2019-03-13T00:47:43.346Z,3.00
2019-03-13T00:50:25.950Z,3.17
2019-03-13T00:52:54.101Z,2.87
2019-03-13T00:55:22.742Z,3.23
2019-03-13T00:57:51.434Z,2.87
2019-03-13T01:00:38.422Z,3.00
2019-03-13T01:03:08.675Z,3.23
2019-03-13T01:05:38.885Z,3.20
2019-03-13T01:08:07.512Z,2.80
2019-03-13T01:10:35.754Z,2.80
2019-03-13T01:13:04.286Z,3.00
2019-03-13T01:15:32.921Z,2.80
2019-03-13T01:18:01.534Z,3.00
2019-03-13T01:20:30.181Z,3.10
2019-03-13T01:22:58.725Z,3.20
2019-03-13T01:25:27.295Z,3.10
2019-03-13T01:27:55.846Z,3.00
2019-03-13T01:30:24.653Z,2.97
2019-03-13T01:32:57.575Z,3.23
2019-03-13T01:35:27.790Z,3.00
2019-03-13T01:37:56.414Z,2.97
2019-03-13T01:40:25.005Z,2.80
2019-03-13T01:42:53.550Z,3.20
2019-03-13T01:45:22.116Z,3.00
2019-03-13T01:47:50.667Z,2.83
2019-03-13T01:50:19.238Z,3.07
2019-03-13T01:52:47.782Z,2.97
2019-03-13T01:55:16.352Z,3.00
2019-03-13T01:57:44.893Z,3.00
2019-03-13T02:00:15.473Z,2.93
2019-03-13T02:02:43.753Z,3.00
2019-03-13T02:05:12.436Z,3.20
2019-03-13T02:07:41.001Z,2.93
2019-03-13T02:10:10.386Z,3.00
2019-03-13T02:12:38.954Z,3.33
2019-03-13T02:15:10.941Z,3.17
2019-03-13T02:17:39.514Z,3.00
2019-03-13T02:20:09.901Z,3.07
2019-03-13T02:22:38.820Z,2.90
2019-03-13T02:25:08.794Z,3.23
2019-03-13T02:27:37.032Z,3.10
2019-03-13T02:30:09.472Z,2.77
2019-03-13T02:32:38.038Z,2.77
2019-03-13T02:35:07.037Z,2.87
2019-03-13T02:37:35.635Z,2.83
2019-03-13T02:40:05.714Z,2.20
2019-03-13T02:42:33.955Z,3.00
2019-03-13T02:45:02.239Z,2.50
2019-03-13T02:47:30.826Z,2.90
2019-03-13T02:49:59.136Z,3.67
2019-03-13T02:52:27.701Z,2.33
2019-03-13T02:54:55.921Z,2.23
2019-03-13T02:57:24.154Z,2.87
2019-03-13T02:59:52.688Z,2.77
2019-03-13T03:02:25.520Z,2.17
2019-03-13T03:04:53.748Z,2.50
2019-03-13T03:07:21.964Z,2.23
2019-03-13T03:09:50.180Z,1.97
2019-03-13T03:12:18.435Z,2.30
2019-03-13T03:14:48.182Z,2.10
2019-03-13T03:17:16.417Z,2.57
2019-03-13T03:19:44.628Z,1.90
2019-03-13T03:22:12.888Z,1.60
2019-03-13T03:24:41.446Z,2.00
2019-03-13T03:27:09.685Z,1.90
2019-03-13T03:29:39.091Z,1.70
2019-03-13T03:32:07.476Z,2.03
2019-03-13T03:34:35.693Z,1.80
2019-03-13T03:37:04.326Z,1.90
2019-03-13T03:39:32.865Z,1.80
2019-03-13T03:42:01.141Z,1.87
2019-03-13T03:44:29.330Z,2.07
2019-03-13T03:46:57.539Z,2.00
2019-03-13T03:49:25.781Z,1.83
2019-03-13T03:51:53.997Z,1.80
2019-03-13T03:54:22.639Z,1.70
2019-03-13T03:56:50.915Z,1.70
2019-03-13T03:59:19.157Z,1.60
2019-03-13T04:01:47.648Z,1.83
2019-03-13T04:04:16.067Z,2.03
2019-03-13T04:06:44.289Z,1.80
2019-03-13T04:09:12.529Z,1.97
2019-03-13T04:11:41.065Z,1.80
2019-03-13T04:14:09.310Z,2.03
2019-03-13T04:16:37.526Z,2.23
2019-03-13T04:19:05.758Z,1.80
2019-03-13T04:21:33.998Z,2.10
2019-03-13T04:24:02.300Z,2.07
2019-03-13T04:26:30.514Z,2.13
2019-03-13T04:28:58.761Z,2.07
2019-03-13T04:31:26.969Z,2.07
2019-03-13T04:33:55.285Z,1.90
2019-03-13T04:36:23.502Z,2.00
2019-03-13T04:38:51.743Z,2.20
2019-03-13T04:41:19.948Z,2.43
2019-03-13T04:43:48.213Z,2.10
2019-03-13T04:46:16.442Z,1.93
2019-03-13T04:48:44.683Z,2.00
2019-03-13T04:51:12.891Z,2.10
2019-03-13T04:53:41.136Z,2.10
2019-03-13T04:56:09.352Z,2.03
2019-03-13T04:58:37.595Z,2.30
2019-03-13T05:01:05.832Z,2.30
2019-03-13T05:03:34.040Z,1.90
2019-03-13T05:06:02.668Z,2.43
2019-03-13T05:08:44.523Z,2.50
2019-03-13T05:11:02.335Z,2.67
2019-03-13T05:13:30.544Z,2.67
2019-03-13T05:15:59.116Z,2.13
2019-03-13T05:18:27.418Z,3.17
2019-03-13T05:20:55.652Z,2.20
2019-03-13T05:23:23.878Z,2.10
2019-03-13T05:25:52.215Z,2.30
2019-03-13T05:28:20.455Z,2.33
2019-03-13T05:30:48.994Z,2.23
2019-03-13T05:33:17.772Z,2.30
2019-03-13T05:35:46.038Z,2.50
2019-03-13T05:38:14.261Z,2.10
2019-03-13T05:40:42.510Z,2.53
2019-03-13T05:43:10.748Z,1.90
2019-03-13T05:45:38.988Z,2.10
2019-03-13T05:48:07.225Z,2.00
2019-03-13T05:50:35.465Z,2.13
2019-03-13T05:53:03.685Z,2.00
2019-03-13T05:55:31.954Z,2.10
2019-03-13T05:58:00.162Z,2.40
2019-03-13T06:00:29.272Z,2.10
2019-03-13T06:02:57.481Z,2.20
2019-03-13T06:05:25.724Z,2.50
2019-03-13T06:07:54.313Z,1.93
2019-03-13T06:10:22.603Z,2.70
2019-03-13T06:12:50.840Z,6.10
2019-03-13T06:15:19.161Z,5.90
2019-03-13T06:17:47.424Z,3.53
2019-03-13T06:20:16.198Z,3.43
2019-03-13T06:22:44.785Z,2.63
2019-03-13T06:25:13.472Z,3.10
2019-03-13T06:27:42.045Z,2.47
2019-03-13T06:30:11.793Z,2.30
2019-03-13T06:32:40.031Z,2.40
2019-03-13T06:35:09.016Z,2.30
2019-03-13T06:37:37.256Z,2.47
2019-03-13T06:40:12.485Z,2.10
2019-03-13T06:42:40.803Z,2.70
2019-03-13T06:45:10.285Z,2.07
2019-03-13T06:47:38.525Z,2.00
2019-03-13T06:50:14.150Z,2.53
2019-03-13T06:52:42.738Z,2.30
2019-03-13T06:55:11.014Z,2.47
2019-03-13T06:57:39.577Z,2.50
2019-03-13T07:00:10.997Z,2.07
2019-03-13T07:02:40.881Z,2.20
2019-03-13T07:05:11.065Z,2.23
2019-03-13T07:07:58.812Z,2.40
2019-03-13T07:10:45.106Z,2.73
2019-03-13T07:13:15.352Z,2.30
2019-03-13T07:15:45.209Z,2.53
2019-03-13T07:18:23.931Z,2.00
2019-03-13T07:20:59.860Z,2.17
2019-03-13T07:23:32.689Z,2.23
2019-03-13T07:26:20.612Z,2.40
2019-03-13T07:28:52.496Z,2.30
2019-03-13T07:31:40.335Z,2.03
2019-03-13T07:34:13.166Z,2.20
2019-03-13T07:36:46.066Z,2.10
2019-03-13T07:39:28.064Z,2.17
2019-03-13T07:42:03.901Z,3.20
2019-03-13T07:44:47.095Z,2.10
2019-03-13T07:47:16.996Z,2.30
2019-03-13T07:50:02.901Z,2.17
2019-03-13T07:52:33.112Z,1.97
2019-03-13T07:55:08.800Z,2.00
2019-03-13T07:57:55.240Z,2.27
2019-03-13T08:00:25.089Z,2.10
2019-03-13T08:02:57.873Z,2.13
2019-03-13T08:05:45.450Z,2.40
2019-03-13T08:08:24.137Z,2.40
2019-03-13T08:10:56.536Z,2.10
2019-03-13T08:13:26.493Z,2.10
2019-03-13T08:16:12.953Z,2.00
2019-03-13T08:18:48.665Z,1.83
2019-03-13T08:21:18.545Z,2.53
2019-03-13T08:24:04.757Z,2.37
2019-03-13T08:26:34.614Z,2.03
2019-03-13T08:29:04.893Z,2.23
2019-03-13T08:31:34.785Z,2.87
2019-03-13T08:42:48.265Z,2.47
2019-03-13T08:45:34.509Z,2.17
2019-03-13T08:48:07.117Z,2.37
2019-03-13T08:50:52.040Z,2.20
2019-03-13T08:53:27.733Z,2.20
2019-03-13T08:55:57.608Z,2.20
2019-03-13T08:58:44.125Z,2.07
2019-03-13T09:01:13.929Z,1.80
2019-03-13T09:09:55.471Z,2.57
2019-03-13T09:15:30.848Z,6.27
2019-03-13T09:55:48.118Z,1.90
2019-03-13T09:58:33.344Z,1.80
2019-03-13T10:01:06.481Z,1.70
2019-03-13T10:03:36.677Z,1.60
2019-03-13T10:09:27.077Z,1.90
2019-03-13T10:12:02.550Z,1.80
2019-03-13T10:14:32.725Z,2.00
2019-03-13T10:17:12.158Z,1.67
2019-03-13T10:19:48.329Z,1.73
2019-03-13T10:22:18.536Z,2.17
2019-03-13T10:27:37.494Z,1.67
2019-03-13T10:30:22.503Z,1.80
2019-03-13T10:33:11.409Z,1.70
2019-03-13T10:35:41.626Z,1.80
2019-03-13T10:38:14.195Z,2.00
2019-03-13T10:41:01.477Z,1.77
2019-03-13T10:43:43.721Z,1.60
2019-03-13T10:50:28.343Z,1.60
2019-03-13T10:52:17.456Z,1.83
2019-03-13T10:54:47.308Z,1.70
2019-03-13T10:57:26.538Z,2.20
2019-03-13T10:59:59.453Z,1.80
2019-03-13T11:02:38.416Z,1.60
2019-03-13T11:05:19.428Z,2.00
2019-03-13T11:07:58.565Z,1.63
2019-03-13T11:10:31.690Z,1.60
2019-03-13T11:13:01.579Z,1.90
2019-03-13T11:18:53.037Z,1.80
2019-03-13T11:21:29.226Z,1.87
2019-03-13T11:24:05.317Z,1.83
2019-03-13T11:26:41.707Z,1.90
2019-03-13T11:29:24.188Z,1.87
2019-03-13T11:32:10.725Z,1.67
2019-03-13T11:34:46.596Z,1.77
2019-03-13T11:37:16.468Z,1.70
2019-03-13T11:39:46.648Z,1.97
2019-03-13T11:42:31.756Z,1.70
2019-03-13T11:47:42.609Z,1.90
2019-03-13T11:50:13.153Z,1.90
2019-03-13T11:52:43.453Z,1.77
2019-03-13T11:55:16.185Z,1.70
2019-03-13T11:57:46.429Z,2.10
2019-03-13T12:00:26.312Z,1.60
2019-03-13T12:02:59.257Z,1.90
2019-03-13T12:05:29.501Z,1.93
2019-03-13T12:08:02.214Z,1.80
2019-03-13T12:10:38.097Z,2.37
2019-03-13T12:13:14.341Z,1.60
2019-03-13T12:18:34.653Z,1.70
2019-03-13T12:24:38.149Z,1.57
2019-03-13T12:27:37.893Z,1.70
2019-03-13T12:30:23.497Z,1.80
2019-03-13T12:32:56.264Z,2.20
2019-03-13T12:35:29.496Z,2.07
2019-03-13T12:37:59.771Z,2.30
2019-03-13T12:40:46.463Z,1.60
2019-03-13T12:43:19.148Z,1.73
2019-03-13T12:46:01.392Z,1.77
2019-03-13T12:48:34.329Z,1.67
2019-03-13T12:51:13.311Z,1.60
2019-03-13T12:53:58.542Z,1.50
2019-03-13T12:56:37.948Z,1.53
2019-03-13T12:59:10.868Z,1.73
2019-03-13T13:01:59.525Z,2.10
2019-03-13T13:07:12.921Z,1.97
2019-03-13T13:09:50.228Z,1.77
2019-03-13T13:12:38.457Z,2.00
2019-03-13T13:15:29.281Z,2.03
2019-03-13T13:17:59.460Z,1.90
2019-03-13T13:20:28.112Z,1.53
2019-03-13T13:22:56.312Z,1.80
2019-03-13T13:25:24.580Z,1.97
2019-03-13T13:27:52.788Z,2.10
2019-03-13T13:30:21.425Z,1.87
2019-03-13T13:32:50.035Z,1.80
2019-03-13T13:37:53.409Z,2.03
2019-03-13T13:40:22.049Z,1.70
2019-03-13T13:42:50.281Z,1.93
2019-03-13T13:45:20.064Z,1.97
2019-03-13T13:47:48.310Z,2.40
2019-03-13T13:50:16.856Z,1.50
2019-03-13T13:52:45.397Z,2.10
2019-03-13T13:55:14.057Z,1.80
2019-03-13T13:57:42.612Z,1.93
2019-03-13T14:00:11.523Z,1.93
2019-03-13T14:02:39.740Z,2.10
2019-03-13T14:05:08.048Z,1.73
2019-03-13T14:07:36.590Z,1.73
2019-03-13T14:10:06.100Z,2.33
2019-03-13T14:12:34.314Z,2.43
2019-03-13T14:15:03.378Z,2.07
2019-03-13T14:17:31.584Z,1.93
2019-03-13T14:19:59.829Z,2.03
2019-03-13T14:22:28.040Z,2.23
2019-03-13T14:25:04.282Z,1.90
2019-03-13T14:27:32.769Z,2.40
2019-03-13T14:30:01.359Z,2.57
2019-03-13T14:32:29.552Z,2.40
2019-03-13T14:34:58.125Z,2.23
2019-03-13T14:37:31.216Z,2.10
2019-03-13T14:40:04.049Z,2.10
2019-03-13T14:42:32.602Z,2.47
2019-03-13T14:45:01.175Z,1.90
2019-03-13T14:47:29.718Z,1.60
2019-03-13T14:49:58.304Z,1.97
2019-03-13T14:52:26.538Z,2.10
2019-03-13T14:54:54.757Z,2.13
2019-03-13T14:57:23.297Z,2.30
2019-03-13T14:59:51.846Z,1.97
2019-03-13T15:02:20.415Z,2.30
2019-03-13T15:10:32.831Z,2.20
2019-03-13T15:13:11.550Z,1.80
2019-03-13T15:15:40.228Z,2.60
2019-03-13T15:18:08.822Z,2.10
2019-03-13T15:20:37.364Z,2.30
2019-03-13T15:23:07.503Z,2.50
2019-03-13T15:25:51.594Z,2.43
2019-03-13T15:28:20.118Z,2.40
2019-03-13T15:30:48.755Z,2.10
2019-03-13T15:33:17.298Z,1.97
2019-03-13T15:38:31.701Z,2.10
2019-03-13T15:41:01.821Z,2.17
2019-03-13T15:43:30.048Z,2.00
2019-03-13T15:45:58.617Z,1.87
2019-03-13T15:48:26.849Z,2.40
2019-03-13T15:50:55.089Z,2.30
2019-03-13T15:53:23.696Z,3.25
2019-03-13T15:55:52.340Z,3.03
2019-03-13T15:58:20.885Z,2.40
2019-03-13T16:00:49.521Z,1.97
2019-03-13T16:03:18.132Z,2.33
2019-03-13T16:05:46.323Z,1.97
2019-03-13T16:08:14.584Z,1.80
2019-03-13T16:10:43.279Z,2.00
2019-03-13T16:13:11.853Z,1.97
2019-03-13T16:15:41.430Z,1.90
2019-03-13T16:18:09.988Z,2.00
2019-03-13T16:20:38.624Z,1.97
2019-03-13T16:23:07.208Z,1.77
2019-03-13T16:25:35.444Z,2.00
2019-03-13T16:28:04.145Z,2.00
2019-03-13T16:30:40.241Z,2.50
2019-03-13T16:33:08.884Z,2.10
2019-03-13T16:35:37.490Z,1.80
2019-03-13T16:38:06.061Z,2.00
2019-03-13T16:40:34.268Z,2.00
2019-03-13T16:43:02.900Z,1.83
2019-03-13T16:45:31.578Z,2.30
2019-03-13T16:48:00.247Z,2.30
2019-03-13T16:50:30.341Z,2.27
2019-03-13T16:52:59.041Z,2.03
2019-03-13T16:55:27.577Z,2.83
2019-03-13T16:57:56.212Z,2.17
2019-03-13T17:00:26.860Z,2.70
2019-03-13T17:02:55.372Z,2.27
2019-03-13T17:05:24.258Z,2.43
2019-03-13T17:07:53.181Z,1.80
2019-03-13T17:10:22.058Z,2.40
2019-03-13T17:12:50.789Z,2.27
2019-03-13T17:15:24.325Z,2.30
2019-03-13T17:17:53.633Z,2.00
2019-03-13T17:20:42.165Z,2.53
2019-03-13T17:23:10.801Z,2.07
2019-03-13T17:25:39.350Z,2.80
2019-03-13T17:28:07.684Z,2.60
2019-03-13T17:30:35.963Z,2.17
2019-03-13T17:33:04.761Z,2.20
2019-03-13T17:35:33.300Z,2.43
2019-03-13T17:38:01.570Z,2.43
2019-03-13T17:40:33.656Z,2.13
2019-03-13T17:43:02.492Z,2.20
2019-03-13T17:45:31.192Z,2.40
2019-03-13T17:47:59.851Z,2.27
2019-03-13T17:50:28.582Z,2.30
2019-03-13T17:52:57.209Z,2.40
2019-03-13T17:55:26.791Z,2.63
2019-03-13T17:57:55.452Z,2.80
2019-03-13T18:00:48.042Z,2.43
2019-03-13T18:03:16.877Z,2.30
2019-03-13T18:05:45.513Z,2.60
2019-03-13T18:08:14.102Z,2.27
2019-03-13T18:10:42.778Z,2.47
2019-03-13T18:13:11.344Z,2.50
2019-03-13T18:15:39.947Z,2.80
2019-03-13T18:18:08.192Z,2.80
2019-03-13T18:20:36.424Z,2.60
2019-03-13T18:23:05.223Z,2.70
2019-03-13T18:25:33.929Z,2.43
2019-03-13T18:28:02.533Z,2.67
2019-03-13T18:30:33.617Z,2.57
2019-03-13T18:33:01.905Z,2.70
2019-03-13T18:35:30.546Z,2.40
2019-03-13T18:37:58.828Z,2.60
2019-03-13T18:40:27.168Z,2.00
2019-03-13T18:42:56.044Z,2.47
2019-03-13T18:45:35.518Z,2.50
2019-03-13T18:48:04.308Z,2.60
2019-03-13T18:50:32.950Z,2.60
2019-03-13T18:53:01.561Z,2.40
2019-03-13T18:55:35.515Z,2.17
2019-03-13T18:58:04.384Z,2.70
2019-03-13T19:00:36.845Z,2.27
2019-03-13T19:03:07.409Z,2.53
2019-03-13T19:05:37.193Z,2.40
2019-03-13T19:08:06.573Z,2.40
2019-03-13T19:10:35.476Z,2.43
2019-03-13T19:13:04.279Z,2.60
2019-03-13T19:15:33.000Z,2.33
2019-03-13T19:18:01.665Z,2.20
2019-03-13T19:20:31.225Z,2.63
2019-03-13T19:22:59.839Z,2.60
2019-03-13T19:25:28.472Z,2.20
2019-03-13T19:27:57.024Z,2.30
2019-03-13T19:30:33.403Z,2.33
2019-03-13T19:33:01.789Z,2.30
2019-03-13T19:35:30.117Z,1.70
2019-03-13T19:38:03.939Z,2.67
2019-03-13T19:40:32.132Z,1.80
2019-03-13T19:43:00.707Z,2.07
2019-03-13T19:45:33.429Z,2.40
2019-03-13T19:48:02.061Z,2.70
2019-03-13T19:50:30.696Z,2.70
2019-03-13T19:52:58.910Z,2.30
2019-03-13T19:55:27.221Z,2.40
2019-03-13T19:57:55.855Z,2.10
2019-03-13T20:00:26.501Z,2.23
2019-03-13T20:03:00.829Z,2.30
2019-03-13T20:05:29.285Z,2.40
2019-03-13T20:07:57.500Z,2.50
2019-03-13T20:10:26.313Z,2.23
2019-03-13T20:12:54.988Z,2.40
2019-03-13T20:15:26.881Z,2.03
2019-03-13T20:17:55.484Z,2.23
2019-03-13T20:20:24.708Z,2.10
2019-03-13T20:22:58.984Z,2.17
2019-03-13T20:25:27.244Z,2.17
2019-03-13T20:27:55.869Z,2.80
2019-03-13T20:30:25.053Z,2.77
2019-03-13T20:32:53.696Z,2.33
2019-03-13T20:35:21.951Z,5.13
2019-03-13T20:37:50.512Z,2.40
2019-03-13T20:40:19.601Z,2.30
2019-03-13T20:42:47.959Z,2.17
2019-03-13T20:45:24.457Z,2.20
2019-03-13T20:47:52.968Z,2.53
2019-03-13T20:50:34.848Z,2.27
2019-03-13T20:52:51.409Z,2.83
2019-03-13T20:55:21.216Z,2.77
2019-03-13T20:57:49.464Z,2.90
2019-03-13T21:00:22.252Z,2.80
2019-03-13T21:02:51.506Z,2.43
2019-03-13T21:05:20.500Z,2.77
2019-03-13T21:07:48.793Z,2.80
2019-03-13T21:10:17.072Z,2.57
2019-03-13T21:12:45.362Z,2.40
2019-03-13T21:15:17.357Z,2.33
2019-03-13T21:17:45.942Z,2.33
2019-03-13T21:20:15.716Z,2.60
2019-03-13T21:22:44.647Z,2.60
2019-03-13T21:25:15.240Z,2.40
2019-03-13T21:27:43.480Z,2.70
2019-03-13T21:30:15.301Z,2.70
2019-03-13T21:32:43.938Z,2.40
2019-03-13T21:35:12.605Z,2.47
2019-03-13T21:37:40.891Z,2.30
2019-03-13T21:40:14.856Z,2.70
2019-03-13T21:42:43.425Z,2.50
2019-03-13T21:45:21.676Z,2.60
2019-03-13T21:47:42.580Z,2.23
2019-03-13T21:50:13.773Z,2.90
2019-03-13T21:52:42.080Z,2.07
2019-03-13T21:55:17.758Z,2.40
2019-03-13T21:57:46.319Z,2.40
2019-03-13T22:00:18.396Z,2.60
2019-03-13T22:02:46.699Z,2.77
2019-03-13T22:05:25.086Z,2.73
2019-03-13T22:07:45.089Z,2.80
2019-03-13T22:10:14.068Z,2.50
2019-03-13T22:12:42.313Z,2.67
2019-03-13T22:15:14.368Z,2.60
2019-03-13T22:17:42.681Z,2.70
2019-03-13T22:20:11.769Z,2.57
2019-03-13T22:22:40.073Z,2.60
2019-03-13T22:25:09.763Z,2.70
2019-03-13T22:27:37.988Z,2.50
2019-03-13T22:30:07.765Z,2.30
2019-03-13T22:32:35.972Z,2.47
2019-03-13T22:35:04.908Z,2.50
2019-03-13T22:37:33.120Z,2.53
2019-03-13T22:40:01.374Z,2.23
2019-03-13T22:42:30.791Z,2.87
2019-03-13T22:44:59.238Z,2.67
2019-03-13T22:47:27.520Z,2.53
2019-03-13T22:49:55.760Z,2.67
2019-03-13T22:52:23.973Z,2.20
2019-03-13T22:54:52.209Z,2.70
2019-03-13T22:57:20.444Z,2.23
2019-03-13T22:59:48.700Z,2.17
2019-03-13T23:02:17.547Z,2.30
2019-03-13T23:04:45.860Z,2.63
2019-03-13T23:07:14.146Z,2.50
2019-03-13T23:09:42.387Z,3.00
2019-03-13T23:12:10.589Z,2.50
2019-03-13T23:14:38.829Z,2.80
2019-03-13T23:17:07.104Z,2.47
2019-03-13T23:19:35.348Z,2.80
2019-03-13T23:22:03.599Z,3.10
2019-03-13T23:24:31.832Z,2.73
2019-03-13T23:27:00.068Z,2.13
2019-03-13T23:29:28.372Z,2.40
2019-03-13T23:31:56.580Z,2.60
2019-03-13T23:34:24.853Z,2.43
2019-03-13T23:36:53.129Z,2.67
2019-03-13T23:39:21.442Z,2.80
2019-03-13T23:41:49.652Z,2.83
2019-03-13T23:44:17.916Z,2.73
2019-03-13T23:46:46.155Z,2.73
2019-03-13T23:49:14.408Z,2.80
2019-03-13T23:51:42.618Z,2.93
2019-03-13T23:54:10.865Z,2.90
2019-03-13T23:56:39.076Z,2.93
2019-03-13T23:59:07.292Z,3.20
